createdAt,value
2023-04-19T00:02:26.852Z,9.04
2023-04-19T00:04:58.168Z,9.00
2023-04-19T00:07:26.533Z,8.95
2023-04-19T00:09:59.528Z,8.88
2023-04-19T00:12:30.631Z,8.87
2023-04-19T00:15:01.566Z,8.89
2023-04-19T00:17:30.071Z,8.89
2023-04-19T00:20:00.722Z,8.87
2023-04-19T00:22:28.828Z,8.78
2023-04-19T00:24:57.005Z,8.67
2023-04-19T00:27:27.672Z,8.69
2023-04-19T00:29:57.461Z,8.75
2023-04-19T00:32:27.075Z,8.78
2023-04-19T00:34:55.341Z,8.80
2023-04-19T00:37:23.676Z,8.81
2023-04-19T00:39:51.880Z,8.81
2023-04-19T00:42:20.000Z,8.82
2023-04-19T00:44:48.369Z,8.82
2023-04-19T00:47:16.896Z,8.82
2023-04-19T00:49:46.750Z,8.80
2023-04-19T00:52:14.920Z,8.79
2023-04-19T00:54:43.047Z,8.78
2023-04-19T00:57:11.222Z,8.78
2023-04-19T00:59:39.477Z,8.81
2023-04-19T01:02:09.893Z,8.85
2023-04-19T01:04:38.366Z,8.86
2023-04-19T01:07:07.681Z,8.85
2023-04-19T01:09:42.081Z,8.82
2023-04-19T01:12:12.768Z,8.78
2023-04-19T01:14:46.172Z,8.75
2023-04-19T01:17:14.441Z,8.76
2023-04-19T01:19:42.923Z,8.75
2023-04-19T01:22:16.892Z,8.68
2023-04-19T01:24:45.095Z,8.60
2023-04-19T01:27:14.254Z,8.57
2023-04-19T01:29:42.664Z,8.53
2023-04-19T01:32:13.054Z,8.48
2023-04-19T01:34:42.963Z,8.48
2023-04-19T01:37:11.100Z,8.49
2023-04-19T01:39:39.185Z,8.45
2023-04-19T01:42:08.854Z,8.42
2023-04-19T01:44:38.247Z,8.42
2023-04-19T01:47:06.585Z,8.39
2023-04-19T01:49:34.895Z,8.39
2023-04-19T01:52:03.018Z,8.40
2023-04-19T01:54:31.782Z,8.37
2023-04-19T01:56:59.932Z,8.29
2023-04-19T01:59:28.160Z,8.21
2023-04-19T02:01:56.857Z,8.19
2023-04-19T02:04:25.987Z,8.24
2023-04-19T02:06:54.116Z,8.32
2023-04-19T02:09:22.416Z,8.32
2023-04-19T02:11:50.759Z,8.30
2023-04-19T02:14:19.059Z,8.30
2023-04-19T02:16:47.175Z,8.25
2023-04-19T02:19:15.406Z,8.22
2023-04-19T02:21:46.195Z,8.26
2023-04-19T02:24:15.799Z,8.32
2023-04-19T02:26:46.510Z,8.39
2023-04-19T02:29:19.267Z,8.39
2023-04-19T02:31:47.431Z,8.37
2023-04-19T02:34:18.721Z,8.37
2023-04-19T02:36:47.154Z,8.43
2023-04-19T02:39:15.171Z,8.53
2023-04-19T02:41:43.389Z,8.60
2023-04-19T02:44:14.035Z,8.62
2023-04-19T02:46:50.876Z,8.62
2023-04-19T02:49:21.796Z,8.59
2023-04-19T02:51:51.153Z,8.59
2023-04-19T02:54:19.679Z,8.62
2023-04-19T02:56:48.148Z,8.69
2023-04-19T02:59:17.307Z,8.73
2023-04-19T03:01:51.138Z,8.73
2023-04-19T03:04:19.668Z,8.71
2023-04-19T03:06:47.956Z,8.69
2023-04-19T03:09:17.168Z,8.73
2023-04-19T03:11:45.295Z,8.81
2023-04-19T03:14:13.659Z,8.83
2023-04-19T03:16:42.172Z,8.83
2023-04-19T03:19:10.627Z,8.81
2023-04-19T03:21:48.437Z,8.79
2023-04-19T03:24:19.561Z,8.78
2023-04-19T03:26:51.342Z,8.82
2023-04-19T03:29:25.513Z,8.89
2023-04-19T03:32:00.796Z,8.92
2023-04-19T03:34:29.236Z,8.91
2023-04-19T03:36:57.414Z,8.89
2023-04-19T03:39:26.242Z,8.87
2023-04-19T03:41:58.319Z,8.91
2023-04-19T03:44:35.695Z,8.97
2023-04-19T03:47:05.440Z,8.98
2023-04-19T03:49:38.079Z,8.96
2023-04-19T03:52:06.754Z,8.93
2023-04-19T03:54:36.301Z,8.91
2023-04-19T03:57:05.028Z,8.94
2023-04-19T03:59:35.455Z,8.96
2023-04-19T04:02:04.614Z,8.97
2023-04-19T04:04:33.273Z,8.95
2023-04-19T04:07:02.558Z,8.93
2023-04-19T04:09:30.817Z,8.91
2023-04-19T04:11:59.089Z,8.95
2023-04-19T04:14:28.106Z,9.01
2023-04-19T04:16:56.184Z,9.02
2023-04-19T04:19:24.412Z,9.00
2023-04-19T04:21:52.558Z,8.95
2023-04-19T04:24:22.289Z,8.91
2023-04-19T04:27:21.075Z,8.94
2023-04-19T04:29:50.941Z,8.98
2023-04-19T04:32:23.328Z,8.98
2023-04-19T04:34:54.246Z,8.99
2023-04-19T04:37:29.903Z,8.97
2023-04-19T04:40:01.536Z,8.94
2023-04-19T04:42:31.545Z,8.98
2023-04-19T04:45:01.711Z,9.04
2023-04-19T04:47:34.579Z,9.06
2023-04-19T04:50:06.167Z,9.03
2023-04-19T04:52:34.587Z,8.97
2023-04-19T04:55:09.269Z,8.88
2023-04-19T04:57:39.330Z,8.78
2023-04-19T05:00:09.413Z,8.69
2023-04-19T05:02:43.906Z,8.66
2023-04-19T05:05:19.675Z,8.69
2023-04-19T05:07:47.919Z,8.74
2023-04-19T05:10:16.248Z,8.83
2023-04-19T05:12:48.759Z,8.92
2023-04-19T05:15:17.164Z,8.97
2023-04-19T05:17:49.686Z,9.01
2023-04-19T05:20:17.982Z,9.01
2023-04-19T05:22:46.945Z,9.00
2023-04-19T05:25:15.241Z,9.05
2023-04-19T05:27:43.520Z,9.14
2023-04-19T05:30:12.052Z,9.18
2023-04-19T05:32:43.020Z,9.18
2023-04-19T05:35:12.341Z,9.17
2023-04-19T05:37:41.788Z,9.17
2023-04-19T05:40:10.512Z,9.23
2023-04-19T05:42:39.152Z,9.30
2023-04-19T05:45:08.076Z,9.31
2023-04-19T05:47:36.684Z,9.31
2023-04-19T05:50:34.830Z,9.28
2023-04-19T05:53:20.051Z,9.27
2023-04-19T05:55:49.543Z,9.29
2023-04-19T05:58:18.631Z,9.34
2023-04-19T06:00:46.898Z,9.33
2023-04-19T06:03:15.364Z,9.28
2023-04-19T06:05:43.944Z,9.23
2023-04-19T06:08:17.076Z,9.19
2023-04-19T06:10:54.506Z,9.17
2023-04-19T06:13:26.214Z,9.21
2023-04-19T06:15:54.940Z,9.29
2023-04-19T06:18:23.228Z,9.31
2023-04-19T06:20:53.303Z,9.32
2023-04-19T06:23:21.520Z,9.32
2023-04-19T06:25:49.653Z,9.32
2023-04-19T06:28:18.504Z,9.32
2023-04-19T06:30:46.713Z,9.37
2023-04-19T06:33:14.962Z,9.47
2023-04-19T06:35:43.224Z,9.53
2023-04-19T06:38:11.313Z,9.57
2023-04-19T06:40:39.546Z,9.57
2023-04-19T06:43:08.349Z,9.47
2023-04-19T06:45:36.934Z,9.33
2023-04-19T06:48:08.062Z,9.25
2023-04-19T06:50:36.292Z,9.24
2023-04-19T06:53:05.939Z,9.24
2023-04-19T06:55:34.243Z,9.25
2023-04-19T06:58:02.403Z,9.21
2023-04-19T07:00:31.011Z,9.10
2023-04-19T07:03:00.630Z,9.00
2023-04-19T07:05:30.077Z,8.95
2023-04-19T07:07:58.530Z,8.93
2023-04-19T07:10:26.695Z,8.92
2023-04-19T07:12:55.935Z,8.88
2023-04-19T07:15:24.156Z,8.80
2023-04-19T07:17:53.029Z,8.77
2023-04-19T07:20:22.545Z,8.82
2023-04-19T07:22:53.918Z,8.85
2023-04-19T07:25:24.713Z,8.84
2023-04-19T07:27:54.322Z,8.84
2023-04-19T07:30:23.003Z,8.82
2023-04-19T07:32:52.047Z,8.77
2023-04-19T07:35:21.240Z,8.77
2023-04-19T07:37:52.487Z,8.82
2023-04-19T07:40:20.715Z,8.87
2023-04-19T07:42:51.408Z,8.87
2023-04-19T07:45:19.620Z,8.83
2023-04-19T07:47:48.167Z,8.80
2023-04-19T07:50:16.275Z,8.87
2023-04-19T07:52:44.845Z,8.97
2023-04-19T07:55:13.072Z,9.01
2023-04-19T07:57:46.150Z,8.99
2023-04-19T08:00:17.472Z,8.94
2023-04-19T08:03:01.773Z,8.93
2023-04-19T08:05:31.950Z,8.91
2023-04-19T08:08:00.464Z,8.94
2023-04-19T08:10:32.885Z,9.00
2023-04-19T08:13:05.041Z,9.03
2023-04-19T08:18:07.142Z,8.96
2023-04-19T08:20:56.211Z,8.90
2023-04-19T08:23:34.692Z,8.90
2023-04-19T08:26:16.584Z,8.94
2023-04-19T08:28:44.954Z,8.96
2023-04-19T08:31:13.018Z,8.99
2023-04-19T08:33:41.242Z,9.03
2023-04-19T08:36:10.562Z,9.06
2023-04-19T08:38:39.589Z,9.04
2023-04-19T08:41:07.708Z,9.10
2023-04-19T08:43:35.978Z,9.19
2023-04-19T08:46:04.772Z,9.25
2023-04-19T08:48:34.872Z,9.28
2023-04-19T08:51:05.591Z,9.28
2023-04-19T08:53:35.048Z,9.25
2023-04-19T08:58:54.724Z,9.18
2023-04-19T09:01:35.345Z,9.26
2023-04-19T09:04:34.587Z,9.34
2023-04-19T09:07:03.934Z,9.37
2023-04-19T09:09:40.718Z,9.42
2023-04-19T09:12:20.282Z,9.49
2023-04-19T09:15:01.223Z,9.46
2023-04-19T09:17:31.352Z,9.41
2023-04-19T09:19:59.723Z,9.41
2023-04-19T09:22:28.193Z,9.42
2023-04-19T09:27:33.985Z,9.66
2023-04-19T09:30:04.943Z,9.75
2023-04-19T09:32:47.413Z,9.73
2023-04-19T09:35:15.873Z,9.69
2023-04-19T09:38:06.056Z,9.66
2023-04-19T09:40:35.428Z,9.65
2023-04-19T09:45:42.382Z,9.64
2023-04-19T09:48:11.239Z,9.70
2023-04-19T09:51:00.131Z,9.78
2023-04-19T09:53:35.297Z,9.85
2023-04-19T09:56:06.267Z,9.88
2023-04-19T09:58:48.976Z,9.93
2023-04-19T10:01:21.142Z,9.99
2023-04-19T10:03:50.153Z,10.02
2023-04-19T10:08:50.494Z,10.04
2023-04-19T10:11:26.998Z,10.05
2023-04-19T10:13:57.248Z,10.06
2023-04-19T10:16:25.730Z,10.04
2023-04-19T10:18:53.893Z,10.01
2023-04-19T10:21:22.280Z,10.00
2023-04-19T10:23:50.649Z,10.02
2023-04-19T10:26:18.856Z,9.99
2023-04-19T10:28:48.062Z,10.00
2023-04-19T10:33:05.040Z,10.13
2023-04-19T10:35:37.891Z,10.12
2023-04-19T10:38:13.309Z,10.09
2023-04-19T10:40:51.480Z,10.09
2023-04-19T10:43:20.758Z,10.11
2023-04-19T10:45:49.019Z,10.09
2023-04-19T10:48:26.668Z,10.01
2023-04-19T10:51:21.169Z,9.96
2023-04-19T10:53:53.852Z,9.96
2023-04-19T10:56:34.596Z,9.94
2023-04-19T10:59:08.566Z,9.94
2023-04-19T11:01:41.034Z,9.95
2023-04-19T11:04:10.126Z,9.98
2023-04-19T11:07:01.714Z,10.02
2023-04-19T11:09:42.464Z,10.09
2023-04-19T11:12:21.156Z,10.12
2023-04-19T11:14:53.638Z,10.13
2023-04-19T11:17:26.009Z,10.18
2023-04-19T11:20:08.717Z,10.22
2023-04-19T11:22:39.615Z,10.23
2023-04-19T11:25:12.384Z,10.19
2023-04-19T11:27:41.555Z,10.17
2023-04-19T11:30:18.185Z,10.17
2023-04-19T11:32:52.372Z,10.14
2023-04-19T11:35:22.471Z,10.11
2023-04-19T11:37:51.111Z,10.11
2023-04-19T11:40:20.318Z,10.22
2023-04-19T11:42:55.864Z,10.34
2023-04-19T11:45:31.650Z,10.41
2023-04-19T11:48:02.406Z,10.39
2023-04-19T11:50:38.599Z,10.33
2023-04-19T11:53:24.364Z,10.26
2023-04-19T11:55:54.605Z,10.21
2023-04-19T11:58:37.162Z,10.18
2023-04-19T12:01:06.868Z,10.19
2023-04-19T12:03:50.782Z,10.21
2023-04-19T12:06:24.530Z,10.19
2023-04-19T12:08:53.500Z,10.15
2023-04-19T12:11:26.899Z,10.12
2023-04-19T12:14:15.640Z,10.09
2023-04-19T12:16:45.262Z,10.08
2023-04-19T12:19:15.217Z,10.13
2023-04-19T12:21:43.826Z,10.27
2023-04-19T12:24:12.553Z,10.44
2023-04-19T12:26:57.172Z,10.51
2023-04-19T12:29:25.649Z,10.53
2023-04-19T12:31:54.111Z,10.51
2023-04-19T12:34:22.483Z,10.52
2023-04-19T12:36:51.331Z,10.54
2023-04-19T12:39:19.738Z,10.54
2023-04-19T12:41:49.052Z,10.57
2023-04-19T12:44:17.564Z,10.63
2023-04-19T12:46:45.944Z,10.67
2023-04-19T12:49:14.432Z,10.66
2023-04-19T12:51:43.208Z,10.65
2023-04-19T12:54:11.396Z,10.62
2023-04-19T12:56:39.786Z,10.59
2023-04-19T12:59:08.686Z,10.56
2023-04-19T13:01:37.295Z,10.57
2023-04-19T13:04:05.800Z,10.55
2023-04-19T13:06:35.024Z,10.53
2023-04-19T13:09:13.619Z,10.57
2023-04-19T13:11:43.043Z,10.64
2023-04-19T13:14:11.259Z,10.69
2023-04-19T13:16:39.695Z,10.74
2023-04-19T13:19:07.986Z,10.77
2023-04-19T13:21:37.266Z,10.80
2023-04-19T13:24:05.809Z,10.79
2023-04-19T13:26:34.775Z,10.81
2023-04-19T13:29:03.492Z,10.91
2023-04-19T13:31:33.357Z,11.00
2023-04-19T13:34:01.674Z,11.01
2023-04-19T13:36:30.111Z,10.97
2023-04-19T13:38:58.555Z,10.95
2023-04-19T13:41:27.073Z,10.98
2023-04-19T13:43:55.470Z,11.03
2023-04-19T13:46:24.055Z,11.03
2023-04-19T13:48:52.534Z,10.97
2023-04-19T13:51:20.692Z,10.93
2023-04-19T13:53:48.867Z,10.92
2023-04-19T13:56:17.140Z,10.91
2023-04-19T13:58:45.554Z,10.89
2023-04-19T14:01:16.054Z,10.86
2023-04-19T14:03:44.819Z,10.86
2023-04-19T14:06:13.292Z,10.85
2023-04-19T14:08:41.638Z,10.85
2023-04-19T14:11:11.054Z,10.82
2023-04-19T14:13:39.667Z,10.78
2023-04-19T14:16:08.386Z,10.79
2023-04-19T14:18:37.152Z,10.84
2023-04-19T14:21:05.772Z,10.86
2023-04-19T14:23:34.668Z,10.87
2023-04-19T14:26:05.412Z,10.89
2023-04-19T14:28:34.020Z,10.85
2023-04-19T14:31:02.186Z,10.77
2023-04-19T14:33:33.798Z,10.73
2023-04-19T14:36:03.288Z,10.69
2023-04-19T14:38:33.727Z,10.64
2023-04-19T14:41:04.499Z,10.62
2023-04-19T14:43:33.492Z,10.59
2023-04-19T14:46:01.865Z,10.55
2023-04-19T14:48:30.283Z,10.51
2023-04-19T14:50:58.382Z,10.50
2023-04-19T14:53:26.767Z,10.53
2023-04-19T14:55:54.879Z,10.57
2023-04-19T14:58:23.686Z,10.59
2023-04-19T15:00:52.277Z,10.58
2023-04-19T15:03:20.650Z,10.54
2023-04-19T15:05:49.179Z,10.52
2023-04-19T15:08:29.556Z,10.49
2023-04-19T15:10:58.749Z,10.46
2023-04-19T15:13:27.304Z,10.43
2023-04-19T15:15:56.111Z,10.41
2023-04-19T15:18:24.319Z,10.46
2023-04-19T15:20:52.698Z,10.53
2023-04-19T15:23:24.359Z,10.60
2023-04-19T15:25:54.755Z,10.61
2023-04-19T15:28:24.086Z,10.58
2023-04-19T15:31:06.549Z,10.55
2023-04-19T15:33:35.539Z,10.51
2023-04-19T15:36:04.316Z,10.48
2023-04-19T15:38:32.995Z,10.47
2023-04-19T15:41:02.183Z,10.46
2023-04-19T15:43:32.178Z,10.48
2023-04-19T15:46:00.685Z,10.53
2023-04-19T15:48:29.795Z,10.58
2023-04-19T15:50:57.959Z,10.58
2023-04-19T15:53:26.665Z,10.57
2023-04-19T15:55:55.952Z,10.57
2023-04-19T15:58:25.009Z,10.55
2023-04-19T16:00:53.450Z,10.54
2023-04-19T16:06:07.310Z,10.48
2023-04-19T16:08:35.582Z,10.44
2023-04-19T16:11:05.643Z,10.48
2023-04-19T16:13:33.811Z,10.53
2023-04-19T16:16:02.120Z,10.57
2023-04-19T16:18:30.681Z,10.61
2023-04-19T16:20:58.816Z,10.62
2023-04-19T16:23:27.183Z,10.61
2023-04-19T16:25:56.832Z,10.56
2023-04-19T16:28:25.372Z,10.55
2023-04-19T16:30:54.397Z,10.55
2023-04-19T16:33:27.649Z,10.57
2023-04-19T16:36:00.613Z,10.62
2023-04-19T16:38:29.242Z,10.66
2023-04-19T16:40:59.233Z,10.68
2023-04-19T16:43:28.334Z,10.67
2023-04-19T16:45:56.952Z,10.65
2023-04-19T16:48:26.363Z,10.64
2023-04-19T16:50:54.474Z,10.60
2023-04-19T16:53:23.245Z,10.56
2023-04-19T16:55:56.533Z,10.53
2023-04-19T16:58:26.034Z,10.52
2023-04-19T17:00:58.459Z,10.57
2023-04-19T17:03:28.791Z,10.65
2023-04-19T17:05:57.989Z,10.72
2023-04-19T17:08:28.795Z,10.74
2023-04-19T17:10:59.551Z,10.75
2023-04-19T17:13:29.137Z,10.75
2023-04-19T17:16:09.027Z,10.75
2023-04-19T17:31:24.184Z,10.85
2023-04-19T17:34:54.504Z,10.84
2023-04-19T17:37:49.636Z,10.81
2023-04-19T17:40:39.088Z,10.78
2023-04-19T17:43:07.690Z,10.76
2023-04-19T17:45:47.734Z,10.79
2023-04-19T17:48:26.221Z,10.84
2023-04-19T17:51:00.499Z,10.86
2023-04-19T17:53:41.174Z,10.86
2023-04-19T17:56:14.158Z,10.86
2023-04-19T17:58:42.348Z,10.85
2023-04-19T18:01:11.354Z,10.82
2023-04-19T18:03:40.380Z,10.80
2023-04-19T18:06:10.022Z,10.77
2023-04-19T18:08:38.544Z,10.79
2023-04-19T18:11:07.695Z,10.84
2023-04-19T18:20:20.429Z,10.89
2023-04-19T18:22:54.165Z,10.86
2023-04-19T18:25:23.131Z,10.83
2023-04-19T18:27:51.357Z,10.79
2023-04-19T18:30:19.671Z,10.82
2023-04-19T18:32:48.318Z,10.87
2023-04-19T18:35:17.780Z,10.89
2023-04-19T18:37:46.699Z,10.88
2023-04-19T18:40:16.162Z,10.86
2023-04-19T18:42:44.451Z,10.82
2023-04-19T18:45:12.966Z,10.77
2023-04-19T18:47:42.326Z,10.72
2023-04-19T18:50:12.182Z,10.67
2023-04-19T18:52:42.093Z,10.67
2023-04-19T18:55:12.256Z,10.72
2023-04-19T18:57:43.214Z,10.73
2023-04-19T19:00:11.794Z,10.70
2023-04-19T19:02:49.701Z,10.67
2023-04-19T19:05:18.136Z,10.65
2023-04-19T19:07:47.369Z,10.62
2023-04-19T19:10:21.885Z,10.59
2023-04-19T19:12:53.814Z,10.57
2023-04-19T19:15:22.333Z,10.60
2023-04-19T19:17:51.014Z,10.66
2023-04-19T19:20:19.888Z,10.68
2023-04-19T19:22:53.074Z,10.67
2023-04-19T19:25:21.555Z,10.66
2023-04-19T19:28:06.375Z,10.64
2023-04-19T19:30:40.242Z,10.59
2023-04-19T19:33:08.630Z,10.55
2023-04-19T19:35:37.028Z,10.57
2023-04-19T19:38:06.473Z,10.61
2023-04-19T19:40:46.321Z,10.64
2023-04-19T19:43:24.088Z,10.65
2023-04-19T19:45:52.243Z,10.66
2023-04-19T19:48:20.610Z,10.66
2023-04-19T19:51:17.273Z,10.65
2023-04-19T19:53:36.917Z,10.65
2023-04-19T19:56:13.070Z,10.63
2023-04-19T19:58:50.325Z,10.68
2023-04-19T20:01:22.511Z,10.76
2023-04-19T20:03:55.050Z,10.80
2023-04-19T20:08:57.449Z,10.82
2023-04-19T20:11:25.845Z,10.81
2023-04-19T20:13:54.490Z,10.80
2023-04-19T20:16:25.133Z,10.77
2023-04-19T20:18:55.136Z,10.74
2023-04-19T20:21:24.105Z,10.76
2023-04-19T20:23:54.099Z,10.80
2023-04-19T20:26:22.423Z,10.84
2023-04-19T20:28:51.472Z,10.82
2023-04-19T20:31:19.545Z,10.80
2023-04-19T20:33:47.858Z,10.76
2023-04-19T20:36:16.572Z,10.74
2023-04-19T20:38:47.930Z,10.72
2023-04-19T20:41:16.488Z,10.75
2023-04-19T20:43:50.609Z,10.81
2023-04-19T20:46:20.043Z,10.82
2023-04-19T20:48:48.369Z,10.80
2023-04-19T20:51:17.740Z,10.75
2023-04-19T20:53:47.492Z,10.69
2023-04-19T20:56:15.562Z,10.67
2023-04-19T20:58:49.952Z,10.65
2023-04-19T21:01:18.501Z,10.62
2023-04-19T21:03:50.115Z,10.57
2023-04-19T21:06:28.372Z,10.52
2023-04-19T21:08:57.692Z,10.45
2023-04-19T21:11:25.814Z,10.44
2023-04-19T21:13:55.305Z,10.48
2023-04-19T21:16:23.822Z,10.45
2023-04-19T21:18:53.529Z,10.42
2023-04-19T21:21:22.157Z,10.37
2023-04-19T21:23:50.776Z,10.35
2023-04-19T21:26:18.930Z,10.39
2023-04-19T21:28:47.168Z,10.45
2023-04-19T21:31:15.363Z,10.47
2023-04-19T21:33:44.713Z,10.47
2023-04-19T21:36:13.321Z,10.42
2023-04-19T21:38:42.402Z,10.37
2023-04-19T21:41:10.994Z,10.37
2023-04-19T21:43:39.297Z,10.41
2023-04-19T21:46:07.704Z,10.42
2023-04-19T21:48:36.429Z,10.40
2023-04-19T21:51:04.905Z,10.33
2023-04-19T21:53:33.306Z,10.27
2023-04-19T21:56:03.049Z,10.29
2023-04-19T21:58:31.642Z,10.32
2023-04-19T22:00:59.884Z,10.32
2023-04-19T22:03:28.419Z,10.29
2023-04-19T22:06:01.968Z,10.24
2023-04-19T22:08:32.768Z,10.19
2023-04-19T22:11:03.712Z,10.18
2023-04-19T22:13:33.602Z,10.19
2023-04-19T22:16:02.552Z,10.17
2023-04-19T22:18:31.456Z,10.11
2023-04-19T22:20:59.857Z,10.05
2023-04-19T22:23:27.987Z,10.05
2023-04-19T22:25:56.128Z,10.10
2023-04-19T22:28:24.537Z,10.10
2023-04-19T22:30:52.823Z,10.09
2023-04-19T22:33:22.090Z,10.06
2023-04-19T22:35:50.367Z,10.01
2023-04-19T22:38:19.172Z,10.04
2023-04-19T22:40:47.428Z,10.09
2023-04-19T22:43:16.391Z,10.11
2023-04-19T22:45:47.881Z,10.08
2023-04-19T22:50:44.618Z,10.03
2023-04-19T22:53:13.284Z,10.01
2023-04-19T22:55:42.233Z,9.99
2023-04-19T22:58:10.459Z,9.95
2023-04-19T23:00:40.867Z,9.90
2023-04-19T23:03:11.477Z,9.89
2023-04-19T23:05:41.774Z,9.89
2023-04-19T23:08:10.011Z,9.85
2023-04-19T23:10:38.379Z,9.79
2023-04-19T23:13:07.058Z,9.72
2023-04-19T23:15:35.581Z,9.71
2023-04-19T23:18:04.399Z,9.72
2023-04-19T23:20:33.488Z,9.70
2023-04-19T23:23:01.791Z,9.63
2023-04-19T23:25:30.461Z,9.56
2023-04-19T23:27:58.548Z,9.56
2023-04-19T23:30:26.760Z,9.58
2023-04-19T23:32:55.044Z,9.60
2023-04-19T23:35:23.417Z,9.59
2023-04-19T23:37:51.535Z,9.58
2023-04-19T23:40:20.214Z,9.62
2023-04-19T23:42:48.331Z,9.70
2023-04-19T23:45:16.535Z,9.71
2023-04-19T23:47:44.669Z,9.70
2023-04-19T23:50:12.918Z,9.66
2023-04-19T23:52:41.385Z,9.67
2023-04-19T23:55:09.719Z,9.71
2023-04-19T23:57:37.971Z,9.71
